Airfield :
LOGIN :

Register | Disclaimer

   EN    FR    IT 

 










Legend :    VFR   Marginal VFR   IFR   Intensive IFR   Very Intensive IFR
Visi :
Ceiling :
>= 8 km
>= 3000ft
5 to 8 km
1000 to 3000 ft
1500m to 5 km
500 to 1000 ft
800 to 1500m
200 to 500 ft
< 800m
< 200 ft
Symbols :   Thunderstorms  Fog  Heavy snow  Heavy precipitations  Wind > 20 kt
SIGMETs :     Misc.  Thunderstorms  Icing  Turbulence  Mountain Waves  Volcanic Ashes







- Airport Elevation : 226 ft
- IATA code : BEX


EGUB - RAF Benson

CURRENT METAR :
  • 180650Z 02008KT 9999 OVC017 10/09 Q1012 WHT BECMG BKN010 GRN

EXPIRED METARs :
  • 180550Z 02008KT 9999 FEW006 OVC018 10/09 Q1012 WHT BECMG BKN012 GRN
  • 180450Z 04007KT 7000 -RADZ FEW006 OVC020 10/10 Q1012 RERA REDZ WHT

TAF TAF EGUB
Valid from the 18 at 06:00 until the 18 at 15:00 UTC


180545Z 1806/1815 03006KT 9999 BKN020
BECMG 1806/1809 BKN010
TEMPO 1806/1812 6000 -RADZ
BECMG 1809/1812 BKN006
PROB40
TEMPO 1812/1815 3000 -DZ BKN004
ATIS : +44 1491-837766 (x7524)
No reported NOTAMs for that airfield.



MET'MAP, your aeronautical weather chart ! - Copyright ORBIFLY December 2007 - Disclaimer

ORBIFLY MET'MAP TEAM :

Programming & Development : Alexandra Zaïnal
Concept & Development : Baudouin d'Aumeries
Co-Development & Prog : Marc-Olivier Méhu
Technical & hardware support : Manuel Goepfert

Contact : metmap@orbifly.com




SOURCES & CREDITS :

   NOAA